Linwood, Texas
Current Conditions -  °F | °C
As of 1:55 AM on Saturday 20 Dec 2014 (Local Time) from KJSO Reporting Station
Moderate Fog Moderate Fog  
Wind Chill: 44°   Ceiling: 200
Heat Index: 46°   Visibility: 0.5mi
Dew Point: 46°   Wind: 5mph
Humidity: 98%   Direction: 40°NE
Pressure: 30.19"   Gusts: NA
Location:  31.6384°N, 95.0772°W
Report Text: KJSO 200755Z AUTO 04004KT 1/2SM FG OVC002 07/07 A3019 RMK AO2 T00800077
Loading
Personal Weather Stations






























Interactive Weather Map New forecast layout! Learn more

10-Day Weather Forecast

Advertisements
Track Severe Weather on mobile